NZAA/AKL METAR and TAF weather

Enter ICAO airport designator
Station Type Date Time Source
NZAA METAR 2022/01/26 20:00 UTC NOAA

NZAA 262000Z AUTO 20019KT 9999 SCT028/// BKN033/// OVC042/// 21/14 Q1010 NOSIG


Station Type Date Time Source
NZAA Decoded METAR 2022/01/26 20:00 UTC NOAA

Auckland Airport, New Zealand (NZAA) 37-01S 174-48E 6M
Jan 26, 2022 - 03:00 PM EST / 2022.01.26 2000 UTC
Wind: from the SSW (200 degrees) at 22 MPH (19 KT):0
Visibility: greater than 7 mile(s):0
Sky conditions: overcast
Temperature: 69 F (21 C)
Dew Point: 57 F (14 C)
Relative Humidity: 64%
Pressure (altimeter): 29.83 in. Hg (1010 hPa)
ob: NZAA 262000Z AUTO 20019KT 9999 SCT028/// BKN033/// OVC042/// 21/14 Q1010 NOSIG
cycle: 20

Station Type Date Time Source
NZAA TAF 2022/01/26 18:03 UTC NOAA

TAF TAF NZAA 261700Z 2618/2718 22015KT 9999 -SHRA FEW015 BKN025
TEMPO 2618/2619 BKN014
FM262100 22018G30KT 9999 FEW030
BECMG 2705/2707 20012KT
BECMG 2709/2711 10010KT

Example: see airport list